createdAt,value
2023-01-07T00:01:47.438Z,8.85
2023-01-07T00:03:49.335Z,8.82
2023-01-07T00:05:51.045Z,8.82
2023-01-07T00:07:52.592Z,8.84
2023-01-07T00:09:54.000Z,8.85
2023-01-07T00:11:55.416Z,8.82
2023-01-07T00:13:57.312Z,8.87
2023-01-07T00:15:59.158Z,8.84
2023-01-07T00:18:00.316Z,8.83
2023-01-07T00:20:02.229Z,8.81
2023-01-07T00:22:03.860Z,8.8
2023-01-07T00:24:04.834Z,8.8
2023-01-07T00:26:06.598Z,8.9
2023-01-07T00:28:07.724Z,8.91
2023-01-07T00:30:08.682Z,8.9
2023-01-07T00:32:09.737Z,8.87
2023-01-07T00:34:11.122Z,8.83
2023-01-07T00:36:12.299Z,8.82
2023-01-07T00:38:14.176Z,8.79
2023-01-07T00:40:16.007Z,8.78
2023-01-07T00:42:17.868Z,8.78
2023-01-07T00:44:18.882Z,8.76
2023-01-07T00:46:20.035Z,8.75
2023-01-07T00:48:21.083Z,8.79
2023-01-07T00:50:22.595Z,8.79
2023-01-07T00:52:23.668Z,8.77
2023-01-07T00:54:25.338Z,8.79
2023-01-07T00:56:27.226Z,8.77
2023-01-07T00:58:28.245Z,8.73
2023-01-07T01:00:30.131Z,8.72
2023-01-07T01:02:31.879Z,8.72
2023-01-07T01:04:33.551Z,8.71
2023-01-07T01:06:34.927Z,8.65
2023-01-07T01:08:36.358Z,8.64
2023-01-07T01:10:37.740Z,8.54
2023-01-07T01:12:39.242Z,8.43
2023-01-07T01:14:40.881Z,8.37
2023-01-07T01:16:42.036Z,8.28
2023-01-07T01:18:43.149Z,8.33
2023-01-07T01:20:44.933Z,8.32
2023-01-07T01:22:46.394Z,8.29
2023-01-07T01:24:47.980Z,8.32
2023-01-07T01:26:49.237Z,8.35
2023-01-07T01:28:50.261Z,8.38
2023-01-07T01:30:51.669Z,8.44
2023-01-07T01:32:53.571Z,8.42
2023-01-07T01:34:55.356Z,8.46
2023-01-07T01:36:57.132Z,8.48
2023-01-07T01:38:58.148Z,8.5
2023-01-07T01:40:59.211Z,8.48
2023-01-07T01:43:00.484Z,8.47
2023-01-07T01:47:03.202Z,8.57
2023-01-07T01:49:04.522Z,8.53
2023-01-07T01:51:06.314Z,8.56
2023-01-07T01:53:08.191Z,8.61
2023-01-07T01:55:09.551Z,8.63
2023-01-07T01:57:10.931Z,8.56
2023-01-07T01:59:12.245Z,8.57
2023-01-07T02:01:13.329Z,8.58
2023-01-07T02:03:14.468Z,8.57
2023-01-07T02:05:16.070Z,8.4
2023-01-07T02:07:17.208Z,8.32
2023-01-07T02:09:18.688Z,8.29
2023-01-07T02:11:20.427Z,8.3
2023-01-07T02:13:21.910Z,8.25
2023-01-07T02:15:23.509Z,8.25
2023-01-07T02:17:25.119Z,8.24
2023-01-07T02:19:26.140Z,8.16
2023-01-07T02:21:27.960Z,8.12
2023-01-07T02:23:29.838Z,8.19
2023-01-07T02:25:31.320Z,8.12
2023-01-07T02:27:32.888Z,8.11
2023-01-07T02:29:34.088Z,8.14
2023-01-07T02:31:35.345Z,8.15
2023-01-07T02:33:37.226Z,8.1
2023-01-07T02:35:38.646Z,8.15
2023-01-07T02:37:39.665Z,8.09
2023-01-07T02:39:41.534Z,8.07
2023-01-07T02:41:43.143Z,8.06
2023-01-07T02:43:44.889Z,8.03
2023-01-07T02:45:46.849Z,8.02
2023-01-07T02:47:48.260Z,8.01
2023-01-07T02:49:49.765Z,8.02
2023-01-07T02:51:50.849Z,7.99
2023-01-07T02:53:51.836Z,8.02
2023-01-07T02:55:53.144Z,8.04
2023-01-07T02:57:54.163Z,8.01
2023-01-07T02:59:56.034Z,7.99
2023-01-07T03:01:57.634Z,7.99
2023-01-07T03:03:59.096Z,7.95
2023-01-07T03:06:00.494Z,7.91
2023-01-07T03:08:02.234Z,7.93
2023-01-07T03:10:03.898Z,7.95
2023-01-07T03:12:05.018Z,7.92
2023-01-07T03:14:05.982Z,7.9
2023-01-07T03:16:07.449Z,7.89
2023-01-07T03:18:08.822Z,7.91
2023-01-07T03:20:10.027Z,7.86
2023-01-07T03:22:11.432Z,7.91
2023-01-07T03:24:12.942Z,7.87
2023-01-07T03:26:14.059Z,7.92
2023-01-07T03:28:15.688Z,7.97
2023-01-07T03:30:17.331Z,8.01
2023-01-07T03:32:19.103Z,7.99
2023-01-07T03:34:20.104Z,7.98
2023-01-07T03:36:21.202Z,7.96
2023-01-07T03:38:22.550Z,7.86
2023-01-07T03:40:24.162Z,7.81
2023-01-07T03:42:25.120Z,7.74
2023-01-07T03:44:27.062Z,7.75
2023-01-07T03:46:28.709Z,7.78
2023-01-07T03:48:30.057Z,7.78
2023-01-07T03:50:31.354Z,7.76
2023-01-07T03:52:33.085Z,7.7
2023-01-07T03:54:34.093Z,7.66
2023-01-07T03:56:35.659Z,7.59
2023-01-07T03:58:37.242Z,7.61
2023-01-07T04:00:38.531Z,7.72
2023-01-07T04:02:39.664Z,7.72
2023-01-07T04:04:41.344Z,7.78
2023-01-07T04:06:42.576Z,7.75
2023-01-07T04:10:46.053Z,7.72
2023-01-07T04:12:47.280Z,7.7
2023-01-07T04:14:48.815Z,7.68
2023-01-07T04:16:50.690Z,8
2023-01-07T04:18:52.393Z,8.21
2023-01-07T04:20:54.167Z,8.35
2023-01-07T04:22:55.803Z,8.3
2023-01-07T04:24:57.452Z,8.24
2023-01-07T04:26:59.109Z,8.15
2023-01-07T04:29:00.266Z,8.03
2023-01-07T04:31:01.625Z,8.09
2023-01-07T04:33:02.631Z,8.05
2023-01-07T04:35:03.802Z,8.03
2023-01-07T04:37:05.697Z,8.1
2023-01-07T04:39:07.142Z,8.23
2023-01-07T04:41:08.218Z,8.26
2023-01-07T04:43:09.605Z,8.47
2023-01-07T04:45:10.994Z,8.54
2023-01-07T04:47:12.062Z,8.52
2023-01-07T04:49:13.748Z,8.47
2023-01-07T04:51:15.462Z,8.59
2023-01-07T04:53:17.335Z,8.57
2023-01-07T04:55:19.264Z,8.62
2023-01-07T04:57:20.283Z,8.69
2023-01-07T04:59:21.637Z,8.68
2023-01-07T05:01:23.372Z,8.65
2023-01-07T05:03:24.035Z,8.69
2023-01-07T05:05:25.757Z,8.7
2023-01-07T05:07:27.389Z,8.75
2023-01-07T05:09:28.869Z,8.72
2023-01-07T05:11:30.187Z,8.75
2023-01-07T05:13:31.430Z,8.7
2023-01-07T05:15:33.250Z,8.76
2023-01-07T05:17:34.666Z,8.74
2023-01-07T05:19:36.412Z,8.72
2023-01-07T05:21:37.713Z,8.77
2023-01-07T05:23:39.420Z,8.73
2023-01-07T05:25:40.917Z,8.71
2023-01-07T05:27:42.877Z,8.67
2023-01-07T05:29:44.431Z,8.7
2023-01-07T05:31:45.366Z,8.72
2023-01-07T05:33:47.004Z,8.64
2023-01-07T05:35:48.492Z,8.53
2023-01-07T05:37:49.885Z,8.53
2023-01-07T05:39:51.248Z,8.57
2023-01-07T05:41:52.329Z,8.55
2023-01-07T05:43:54.116Z,8.5
2023-01-07T05:45:55.117Z,8.42
2023-01-07T05:47:56.202Z,8.42
2023-01-07T05:49:58.022Z,8.52
2023-01-07T05:51:59.881Z,8.52
2023-01-07T05:54:00.838Z,8.54
2023-01-07T05:56:02.068Z,8.57
2023-01-07T05:58:03.480Z,8.58
2023-01-07T06:00:04.821Z,8.6
2023-01-07T06:02:05.880Z,8.52
2023-01-07T06:04:07.007Z,8.69
2023-01-07T06:06:52.439Z,8.73
2023-01-07T06:08:53.548Z,8.61
2023-01-07T06:10:55.325Z,8.72
2023-01-07T06:12:56.721Z,8.69
2023-01-07T06:14:58.427Z,8.76
2023-01-07T06:16:59.581Z,8.73
2023-01-07T06:19:00.647Z,8.55
2023-01-07T06:21:02.501Z,8.41
2023-01-07T06:23:03.862Z,8.63
2023-01-07T06:25:04.856Z,8.56
2023-01-07T06:27:06.288Z,8.54
2023-01-07T06:29:07.902Z,8.61
2023-01-07T06:31:09.705Z,8.62
2023-01-07T06:33:11.168Z,8.47
2023-01-07T06:35:12.922Z,8.44
2023-01-07T06:37:14.759Z,8.49
2023-01-07T06:39:16.663Z,8.54
2023-01-07T06:41:17.958Z,8.54
2023-01-07T06:43:19.731Z,8.57
2023-01-07T06:45:21.505Z,8.76
2023-01-07T06:47:22.523Z,8.71
2023-01-07T06:49:23.756Z,8.76
2023-01-07T06:51:25.284Z,8.8
2023-01-07T06:53:26.835Z,8.73
2023-01-07T06:55:28.718Z,8.59
2023-01-07T06:57:29.997Z,8.65
2023-01-07T06:59:31.660Z,8.51
2023-01-07T07:01:33.311Z,8.37
2023-01-07T07:03:35.106Z,8.35
2023-01-07T07:05:36.541Z,8.33
2023-01-07T07:07:38.345Z,8.41
2023-01-07T07:09:39.399Z,8.36
2023-01-07T07:11:40.916Z,8.31
2023-01-07T07:13:42.575Z,8.24
2023-01-07T07:15:44.061Z,8.31
2023-01-07T07:17:45.745Z,8.33
2023-01-07T07:19:47.250Z,8.38
2023-01-07T07:21:49.162Z,8.34
2023-01-07T07:23:50.762Z,8.21
2023-01-07T07:25:52.435Z,8.09
2023-01-07T07:27:53.806Z,8.29
2023-01-07T07:29:54.866Z,8.54
2023-01-07T07:31:56.530Z,8.39
2023-01-07T07:33:58.197Z,8.28
2023-01-07T07:36:00.046Z,8.23
2023-01-07T07:38:01.895Z,8.32
2023-01-07T07:40:03.692Z,8.66
2023-01-07T07:42:04.964Z,8.73
2023-01-07T07:44:06.003Z,8.79
2023-01-07T07:46:07.750Z,8.83
2023-01-07T07:48:09.373Z,8.91
2023-01-07T07:50:10.803Z,8.92
2023-01-07T07:52:11.686Z,9.05
2023-01-07T07:54:13.412Z,9.01
2023-01-07T07:56:15.130Z,9.06
2023-01-07T07:58:16.860Z,9.05
2023-01-07T08:00:18.432Z,9.08
2023-01-07T08:02:19.720Z,8.86
2023-01-07T08:04:21.076Z,8.79
2023-01-07T08:06:22.808Z,8.8
2023-01-07T08:08:23.959Z,8.71
2023-01-07T08:10:25.417Z,8.65
2023-01-07T08:12:27.095Z,8.6
2023-01-07T08:14:28.050Z,8.58
2023-01-07T08:16:29.282Z,8.6
2023-01-07T08:18:30.294Z,8.55
2023-01-07T08:20:31.691Z,8.51
2023-01-07T08:22:33.221Z,8.47
2023-01-07T08:26:35.575Z,8.9
2023-01-07T08:28:37.360Z,8.83
2023-01-07T08:30:38.753Z,8.75
2023-01-07T08:32:40.467Z,8.59
2023-01-07T08:34:41.922Z,8.59
2023-01-07T08:36:42.997Z,8.56
2023-01-07T08:38:44.797Z,8.62
2023-01-07T08:40:46.037Z,8.59
2023-01-07T08:42:47.165Z,8.7
2023-01-07T08:44:48.973Z,8.64
2023-01-07T08:46:50.085Z,8.54
2023-01-07T08:48:51.292Z,8.54
2023-01-07T08:50:52.651Z,8.8
2023-01-07T08:52:53.782Z,8.86
2023-01-07T08:54:55.556Z,8.99
2023-01-07T08:56:57.405Z,8.94
2023-01-07T08:58:59.068Z,8.85
2023-01-07T09:01:00.255Z,9
2023-01-07T09:03:01.189Z,9.06
2023-01-07T09:05:02.887Z,9.01
2023-01-07T09:09:06.159Z,9.08
2023-01-07T09:11:07.975Z,9.07
2023-01-07T09:13:09.387Z,9.11
2023-01-07T09:15:10.612Z,9.13
2023-01-07T09:17:11.877Z,9.14
2023-01-07T09:19:13.152Z,9.14
2023-01-07T09:21:14.344Z,9.16
2023-01-07T09:23:16.026Z,9.18
2023-01-07T09:25:17.945Z,9.17
2023-01-07T09:27:19.297Z,9.19
2023-01-07T09:29:20.892Z,9.22
2023-01-07T09:31:22.438Z,9.21
2023-01-07T09:33:24.057Z,9.19
2023-01-07T09:35:25.425Z,9.21
2023-01-07T09:37:26.950Z,9.24
2023-01-07T09:39:28.668Z,9.25
2023-01-07T09:41:30.012Z,9.26
2023-01-07T09:43:59.073Z,9.25
2023-01-07T09:45:33.569Z,9.26
2023-01-07T09:47:35.177Z,9.33
2023-01-07T09:51:37.997Z,9.36
2023-01-07T09:53:39.875Z,9.36
2023-01-07T09:56:10.309Z,9.41
2023-01-07T09:57:43.408Z,9.4
2023-01-07T09:59:45.274Z,9.37
2023-01-07T10:01:46.845Z,9.38
2023-01-07T10:03:48.059Z,9.44
2023-01-07T10:05:49.631Z,9.42
2023-01-07T10:07:50.707Z,9.41
2023-01-07T10:09:52.524Z,9.37
2023-01-07T10:11:54.138Z,9.43
2023-01-07T10:13:55.817Z,9.41
2023-01-07T10:15:57.217Z,9.41
2023-01-07T10:17:58.781Z,9.41
2023-01-07T10:20:00.678Z,9.36
2023-01-07T10:22:02.185Z,9.34
2023-01-07T10:24:03.279Z,9.37
2023-01-07T10:26:04.591Z,9.33
2023-01-07T10:28:06.015Z,9.35
2023-01-07T10:30:06.937Z,9.33
2023-01-07T10:32:08.057Z,9.32
2023-01-07T10:34:09.201Z,9.35
2023-01-07T10:36:10.222Z,9.31
2023-01-07T10:38:11.522Z,9.3
2023-01-07T10:40:12.924Z,9.26
2023-01-07T10:42:14.573Z,9.23
2023-01-07T10:44:16.166Z,9.23
2023-01-07T10:46:18.006Z,9.21
2023-01-07T10:48:18.920Z,9.2
2023-01-07T10:50:20.676Z,9.21
2023-01-07T10:52:22.541Z,9.15
2023-01-07T10:54:24.416Z,9.17
2023-01-07T10:56:25.407Z,9.13
2023-01-07T10:58:26.744Z,9.15
2023-01-07T11:00:28.236Z,9.1
2023-01-07T11:02:30.104Z,9.11
2023-01-07T11:04:31.740Z,9.1
2023-01-07T11:06:32.721Z,9.11
2023-01-07T11:08:33.853Z,9.1
2023-01-07T11:10:35.337Z,9.12
2023-01-07T11:12:36.561Z,9.12
2023-01-07T11:14:38.024Z,9.15
2023-01-07T11:16:39.555Z,9.2
2023-01-07T11:18:40.817Z,9.22
2023-01-07T11:20:42.136Z,9.22
2023-01-07T11:22:43.187Z,9.17
2023-01-07T11:24:44.938Z,9.23
2023-01-07T11:26:55.221Z,9.22
2023-01-07T11:28:47.196Z,9.29
2023-01-07T11:30:48.813Z,9.32
2023-01-07T11:32:50.185Z,9.41
2023-01-07T11:34:51.754Z,9.43
2023-01-07T11:36:53.479Z,9.51
2023-01-07T11:38:54.659Z,9.49
2023-01-07T11:40:55.477Z,9.54
2023-01-07T11:42:56.929Z,9.56
2023-01-07T11:44:58.085Z,9.54
2023-01-07T11:46:59.916Z,9.7
2023-01-07T11:49:01.190Z,9.61
2023-01-07T11:51:02.285Z,9.66
2023-01-07T11:53:03.279Z,9.76
2023-01-07T11:55:04.637Z,9.71
2023-01-07T11:57:06.012Z,9.69
2023-01-07T11:59:07.673Z,9.52
2023-01-07T12:01:08.947Z,9.6
2023-01-07T12:03:10.163Z,9.61
2023-01-07T12:05:11.593Z,9.63
2023-01-07T12:07:12.593Z,9.61
2023-01-07T12:09:13.978Z,9.73
2023-01-07T12:11:15.531Z,9.75
2023-01-07T12:15:17.954Z,9.78
2023-01-07T12:17:19.469Z,9.92
2023-01-07T12:19:20.438Z,10.08
2023-01-07T12:21:22.095Z,10.31
2023-01-07T12:23:23.227Z,10.27
2023-01-07T12:25:24.528Z,10.52
2023-01-07T12:27:26.336Z,10.52
2023-01-07T12:29:27.837Z,10.48
2023-01-07T12:31:29.015Z,10.22
2023-01-07T12:33:30.544Z,10.24
2023-01-07T12:35:32.256Z,10.12
2023-01-07T12:37:34.004Z,10.09
2023-01-07T12:39:35.890Z,10.05
2023-01-07T12:41:37.102Z,10
2023-01-07T12:43:38.673Z,9.89
2023-01-07T12:45:39.662Z,9.83
2023-01-07T12:47:40.627Z,9.87
2023-01-07T12:49:42.171Z,9.92
2023-01-07T12:52:27.556Z,9.88
2023-01-07T12:54:28.472Z,9.97
2023-01-07T12:56:29.522Z,10.06
2023-01-07T12:58:30.878Z,10.18
2023-01-07T13:00:32.712Z,10.42
2023-01-07T13:02:34.074Z,10.15
2023-01-07T13:04:35.576Z,10.25
2023-01-07T13:06:37.075Z,10.21
2023-01-07T13:08:38.605Z,10.34
2023-01-07T13:10:39.779Z,10.38
2023-01-07T13:12:43.030Z,10.41
2023-01-07T13:14:42.110Z,10.33
2023-01-07T13:16:43.902Z,10.27
2023-01-07T13:18:45.189Z,10.14
2023-01-07T13:20:47.049Z,10.17
2023-01-07T13:22:48.872Z,10.11
2023-01-07T13:24:55.322Z,10.13
2023-01-07T13:26:51.018Z,10.04
2023-01-07T13:28:52.325Z,10.01
2023-01-07T13:30:53.494Z,10.14
2023-01-07T13:32:54.603Z,10.11
2023-01-07T13:34:56.173Z,10.2
2023-01-07T13:36:57.897Z,10.31
2023-01-07T13:38:58.823Z,10.12
2023-01-07T13:41:00.308Z,10.16
2023-01-07T13:43:01.568Z,10.28
2023-01-07T13:45:03.339Z,10.4
2023-01-07T13:47:05.437Z,10.39
2023-01-07T13:51:08.139Z,10.82
2023-01-07T13:53:09.244Z,10.75
2023-01-07T13:55:10.509Z,10.62
2023-01-07T13:57:12.008Z,10.52
2023-01-07T13:59:13.278Z,10.58
2023-01-07T14:01:14.433Z,10.77
2023-01-07T14:03:15.549Z,11
2023-01-07T14:05:17.062Z,11.32
2023-01-07T14:07:18.574Z,11.25
2023-01-07T14:09:19.932Z,11.53
2023-01-07T14:11:21.180Z,11.64
2023-01-07T14:13:22.288Z,11.82
2023-01-07T14:15:23.751Z,11.78
2023-01-07T14:17:25.621Z,11.67
2023-01-07T14:19:26.737Z,11.56
2023-01-07T14:21:28.356Z,11.8
2023-01-07T14:23:30.083Z,11.87
2023-01-07T14:25:31.360Z,11.83
2023-01-07T14:27:32.292Z,11.32
2023-01-07T14:29:33.481Z,11.49
2023-01-07T14:31:34.737Z,11.42
2023-01-07T14:33:36.180Z,11.62
2023-01-07T14:35:37.114Z,11.72
2023-01-07T14:37:38.353Z,11.52
2023-01-07T14:39:39.957Z,11.4
2023-01-07T14:41:41.747Z,11.32
2023-01-07T14:43:43.106Z,11.01
2023-01-07T14:45:44.135Z,10.85
2023-01-07T14:47:45.546Z,10.73
2023-01-07T14:49:47.048Z,10.54
2023-01-07T14:51:48.683Z,10.31
2023-01-07T14:53:50.519Z,10.12
2023-01-07T14:55:52.477Z,10.04
2023-01-07T14:57:53.957Z,9.87
2023-01-07T14:59:55.793Z,9.75
2023-01-07T15:01:57.301Z,9.65
2023-01-07T15:03:58.128Z,9.52
2023-01-07T15:05:59.353Z,9.02
2023-01-07T15:08:00.314Z,9.02
2023-01-07T15:10:01.894Z,9.07
2023-01-07T15:12:02.705Z,8.95
2023-01-07T15:14:04.319Z,8.7
2023-01-07T15:16:05.978Z,8.77
2023-01-07T15:18:07.578Z,8.72
2023-01-07T15:20:08.593Z,8.65
2023-01-07T15:22:10.364Z,8.76
2023-01-07T15:24:11.419Z,9.02
2023-01-07T15:26:12.682Z,9.06
2023-01-07T15:28:14.311Z,9.11
2023-01-07T15:30:15.521Z,9.08
2023-01-07T15:32:17.434Z,9.1
2023-01-07T15:34:19.167Z,9.1
2023-01-07T15:36:20.286Z,9.01
2023-01-07T15:38:21.712Z,8.9
2023-01-07T15:40:22.673Z,8.81
2023-01-07T15:42:24.192Z,8.87
2023-01-07T15:44:27.331Z,8.5
2023-01-07T15:46:27.148Z,8.35
2023-01-07T15:48:28.804Z,8.75
2023-01-07T15:50:30.688Z,8.51
2023-01-07T15:52:32.147Z,8.48
2023-01-07T15:54:33.804Z,8.6
2023-01-07T15:56:34.743Z,8.53
2023-01-07T15:58:36.431Z,8.26
2023-01-07T16:00:38.202Z,8.66
2023-01-07T16:02:39.195Z,8.57
2023-01-07T16:04:40.984Z,7.43
2023-01-07T16:06:42.845Z,7.98
2023-01-07T16:08:43.913Z,8.55
2023-01-07T16:10:45.725Z,8.57
2023-01-07T16:14:48.059Z,8.44
2023-01-07T16:16:49.723Z,8.27
2023-01-07T16:18:50.991Z,8.11
2023-01-07T16:20:52.125Z,7.61
2023-01-07T16:22:53.829Z,7.83
2023-01-07T16:24:55.517Z,6.78
2023-01-07T16:26:56.576Z,6.46
2023-01-07T16:28:58.404Z,6.47
2023-01-07T16:30:59.537Z,6.37
2023-01-07T16:33:00.995Z,6.31
2023-01-07T16:35:02.198Z,6.23
2023-01-07T16:37:04.174Z,6.16
2023-01-07T16:39:05.222Z,6.24
2023-01-07T16:41:06.574Z,6.29
2023-01-07T16:43:07.791Z,6.42
2023-01-07T16:45:09.724Z,6.4
2023-01-07T16:47:10.984Z,6.46
2023-01-07T16:49:12.728Z,6.37
2023-01-07T16:51:13.745Z,6.41
2023-01-07T16:53:15.059Z,6.35
2023-01-07T16:55:16.521Z,6.24
2023-01-07T16:57:17.853Z,6.03
2023-01-07T16:59:18.908Z,5.88
2023-01-07T17:01:20.626Z,5.93
2023-01-07T17:03:22.154Z,6.02
2023-01-07T17:05:23.216Z,6.11
2023-01-07T17:07:24.810Z,6.11
2023-01-07T17:09:26.058Z,6.25
2023-01-07T17:11:27.565Z,6.26
2023-01-07T17:13:28.841Z,6.11
2023-01-07T17:15:30.181Z,6.03
2023-01-07T17:17:32.134Z,5.82
2023-01-07T17:19:34.000Z,5.8
2023-01-07T17:21:35.564Z,5.69
2023-01-07T17:23:37.365Z,5.42
2023-01-07T17:25:39.148Z,5.22
2023-01-07T17:27:40.372Z,5.31
2023-01-07T17:29:41.447Z,5.45
2023-01-07T17:31:42.875Z,5.33
2023-01-07T17:33:44.336Z,5.17
2023-01-07T17:35:46.014Z,5.02
2023-01-07T17:37:47.207Z,4.99
2023-01-07T17:39:49.904Z,5
2023-01-07T17:41:49.915Z,4.84
2023-01-07T17:43:51.569Z,4.35
2023-01-07T17:45:53.606Z,4.28
2023-01-07T17:47:54.717Z,4.66
2023-01-07T17:49:55.940Z,4.42
2023-01-07T17:51:57.334Z,4.55
2023-01-07T17:53:58.489Z,4.49
2023-01-07T17:56:00.042Z,4.34
2023-01-07T17:58:01.422Z,4.32
2023-01-07T18:00:03.074Z,4.32
2023-01-07T18:02:05.097Z,4.26
2023-01-07T18:04:06.256Z,4.32
2023-01-07T18:06:07.424Z,4.23
2023-01-07T18:08:08.745Z,4.07
2023-01-07T18:10:10.481Z,4.43
2023-01-07T18:12:11.731Z,4.38
2023-01-07T18:14:13.541Z,4.27
2023-01-07T18:16:14.678Z,4.27
2023-01-07T18:18:15.677Z,4.32
2023-01-07T18:20:17.205Z,4.42
2023-01-07T18:22:18.489Z,4.25
2023-01-07T18:24:19.557Z,4.26
2023-01-07T18:26:21.542Z,4.45
2023-01-07T18:28:22.876Z,4.38
2023-01-07T18:30:24.075Z,4.26
2023-01-07T18:32:25.724Z,4.23
2023-01-07T18:34:27.375Z,4.32
2023-01-07T18:36:28.636Z,4.33
2023-01-07T18:38:29.945Z,4.31
2023-01-07T18:40:31.627Z,4.35
2023-01-07T18:42:33.349Z,4.2
2023-01-07T18:44:34.837Z,4.16
2023-01-07T18:46:36.613Z,4.06
2023-01-07T18:48:37.606Z,4.05
2023-01-07T18:50:39.462Z,4.02
2023-01-07T18:52:41.204Z,4.1
2023-01-07T18:54:42.802Z,3.92
2023-01-07T18:56:44.245Z,3.97
2023-01-07T18:58:45.740Z,3.99
2023-01-07T19:00:47.320Z,4.01
2023-01-07T19:02:48.325Z,4.02
2023-01-07T19:04:50.269Z,3.98
2023-01-07T19:06:51.574Z,3.91
2023-01-07T19:08:53.122Z,3.87
2023-01-07T19:10:55.080Z,3.82
2023-01-07T19:12:56.073Z,3.7
2023-01-07T19:14:57.709Z,3.71
2023-01-07T19:16:59.287Z,3.74
2023-01-07T19:21:02.305Z,3.66
2023-01-07T19:23:03.594Z,3.62
2023-01-07T19:25:05.160Z,3.53
2023-01-07T19:27:06.724Z,3.58
2023-01-07T19:29:08.185Z,3.47
2023-01-07T19:31:09.637Z,3.44
2023-01-07T19:33:11.041Z,3.55
2023-01-07T19:35:12.771Z,3.58
2023-01-07T19:38:07.359Z,3.76
2023-01-07T19:40:00.291Z,3.8
2023-01-07T19:42:01.296Z,3.87
2023-01-07T19:44:03.169Z,3.85
2023-01-07T19:46:04.512Z,4
2023-01-07T19:48:06.341Z,4.17
2023-01-07T19:50:08.163Z,4.2
2023-01-07T19:52:09.205Z,4.14
2023-01-07T19:54:10.276Z,3.95
2023-01-07T19:56:12.155Z,4.07
2023-01-07T19:58:13.836Z,4.42
2023-01-07T20:00:14.964Z,4.43
2023-01-07T20:02:16.276Z,4.62
2023-01-07T20:04:17.740Z,4.64
2023-01-07T20:06:19.362Z,4.63
2023-01-07T20:08:21.189Z,4.43
2023-01-07T20:10:22.873Z,4.38
2023-01-07T20:12:24.864Z,4.32
2023-01-07T20:14:26.743Z,4.2
2023-01-07T20:16:27.832Z,4.34
2023-01-07T20:18:29.727Z,4.24
2023-01-07T20:20:31.430Z,4.07
2023-01-07T20:22:32.580Z,4.12
2023-01-07T20:24:33.917Z,4.08
2023-01-07T20:26:35.615Z,4.04
2023-01-07T20:28:37.370Z,3.93
2023-01-07T20:30:38.809Z,3.76
2023-01-07T20:32:40.736Z,3.63
2023-01-07T20:34:42.644Z,3.68
2023-01-07T20:36:44.332Z,4.06
2023-01-07T20:38:45.511Z,3.97
2023-01-07T20:40:47.227Z,3.92
2023-01-07T20:42:48.479Z,3.89
2023-01-07T20:44:50.014Z,4.03
2023-01-07T20:46:51.912Z,4.31
2023-01-07T20:48:52.978Z,4.37
2023-01-07T20:50:54.191Z,4.28
2023-01-07T20:52:55.221Z,4.04
2023-01-07T20:54:57.002Z,4.24
2023-01-07T20:56:58.297Z,4.1
2023-01-07T20:58:59.980Z,4.08
2023-01-07T21:01:01.248Z,4.26
2023-01-07T21:03:03.270Z,4.2
2023-01-07T21:05:04.224Z,4.3
2023-01-07T21:07:06.030Z,4.36
2023-01-07T21:09:06.976Z,4.51
2023-01-07T21:11:08.494Z,4.69
2023-01-07T21:13:10.084Z,4.45
2023-01-07T21:15:11.359Z,4.59
2023-01-07T21:17:13.329Z,4.73
2023-01-07T21:19:14.801Z,4.59
2023-01-07T21:21:16.020Z,4.7
2023-01-07T21:23:17.491Z,4.66
2023-01-07T21:25:19.006Z,4.56
2023-01-07T21:27:20.192Z,4.51
2023-01-07T21:29:21.763Z,4.33
2023-01-07T21:31:23.057Z,4.57
2023-01-07T21:33:24.791Z,4.74
2023-01-07T21:35:26.144Z,4.82
2023-01-07T21:37:29.290Z,4.8
2023-01-07T21:39:29.277Z,4.8
2023-01-07T21:41:30.267Z,4.88
2023-01-07T21:43:32.281Z,4.88
2023-01-07T21:45:33.909Z,4.88
2023-01-07T21:47:35.531Z,4.79
2023-01-07T21:49:37.166Z,4.84
2023-01-07T21:51:38.780Z,4.84
2023-01-07T21:53:40.214Z,4.93
2023-01-07T21:55:41.906Z,5.07
2023-01-07T21:57:43.181Z,5.14
2023-01-07T21:59:45.007Z,5.13
2023-01-07T22:01:46.529Z,5.14
2023-01-07T22:03:47.895Z,5.22
2023-01-07T22:05:49.416Z,5.07
2023-01-07T22:07:50.971Z,5.22
2023-01-07T22:09:52.932Z,5.03
2023-01-07T22:11:54.186Z,5.15
2023-01-07T22:13:55.746Z,5.25
2023-01-07T22:15:57.342Z,5.21
2023-01-07T22:17:58.454Z,5.14
2023-01-07T22:20:00.008Z,5.12
2023-01-07T22:22:01.904Z,5.1
2023-01-07T22:24:03.684Z,5.04
2023-01-07T22:26:05.576Z,4.87
2023-01-07T22:28:07.122Z,4.83
2023-01-07T22:30:08.201Z,4.72
2023-01-07T22:32:09.560Z,4.57
2023-01-07T22:34:10.591Z,4.45
2023-01-07T22:36:12.293Z,4.34
2023-01-07T22:38:14.181Z,4.25
2023-01-07T22:40:15.990Z,4.16
2023-01-07T22:42:17.758Z,4.07
2023-01-07T22:44:18.873Z,4.06
2023-01-07T22:46:20.841Z,4.27
2023-01-07T22:48:22.568Z,4.31
2023-01-07T22:50:24.137Z,4.25
2023-01-07T22:52:25.837Z,4.21
2023-01-07T22:54:27.302Z,4.17
2023-01-07T22:56:28.919Z,4.02
2023-01-07T22:58:30.378Z,4
2023-01-07T23:00:31.432Z,3.96
2023-01-07T23:02:33.097Z,4.28
2023-01-07T23:04:34.525Z,4.29
2023-01-07T23:06:35.759Z,4.23
2023-01-07T23:08:37.363Z,4.53
2023-01-07T23:10:39.241Z,4.63
2023-01-07T23:12:41.102Z,4.67
2023-01-07T23:14:42.721Z,4.79
2023-01-07T23:16:44.723Z,4.8
2023-01-07T23:18:46.090Z,4.68
2023-01-07T23:20:47.698Z,4.5
2023-01-07T23:22:49.026Z,4.8
2023-01-07T23:24:50.880Z,5.1
2023-01-07T23:26:52.589Z,5.2
2023-01-07T23:28:54.535Z,5.23
2023-01-07T23:30:56.488Z,5.21
2023-01-07T23:32:57.637Z,5.51
2023-01-07T23:34:59.090Z,5.3
2023-01-07T23:37:00.935Z,5.19
2023-01-07T23:39:02.015Z,5.33
2023-01-07T23:41:03.800Z,5.34
2023-01-07T23:43:05.567Z,5.47
2023-01-07T23:45:06.713Z,5.65
2023-01-07T23:47:07.932Z,5.72
2023-01-07T23:49:09.228Z,5.76
2023-01-07T23:51:10.921Z,5.8
2023-01-07T23:53:12.502Z,5.75
2023-01-07T23:55:13.946Z,5.37
2023-01-07T23:57:15.361Z,5.09
2023-01-07T23:59:16.797Z,4.79
